createdAt,value
2022-11-28T00:01:22.924Z,9.25
2022-11-28T00:03:50.600Z,9.32
2022-11-28T00:06:18.432Z,8.70
2022-11-28T00:08:46.284Z,9.48
2022-11-28T00:11:14.798Z,9.70
2022-11-28T00:13:42.663Z,8.65
2022-11-28T00:16:13.836Z,9.27
2022-11-28T00:18:41.406Z,9.02
2022-11-28T00:21:10.541Z,8.75
2022-11-28T00:23:38.270Z,9.40
2022-11-28T00:26:10.328Z,9.27
2022-11-28T00:28:38.257Z,9.27
2022-11-28T00:31:05.867Z,9.70
2022-11-28T00:33:34.083Z,9.23
2022-11-28T00:36:02.781Z,9.80
2022-11-28T00:38:30.689Z,9.20
2022-11-28T00:41:06.043Z,9.32
2022-11-28T00:43:33.706Z,9.38
2022-11-28T00:46:01.302Z,9.18
2022-11-28T00:48:29.263Z,8.98
2022-11-28T00:51:06.447Z,9.73
2022-11-28T00:53:34.003Z,9.85
2022-11-28T00:56:01.634Z,9.38
2022-11-28T00:58:29.167Z,9.13
2022-11-28T01:00:56.718Z,9.70
2022-11-28T01:03:24.497Z,9.20
2022-11-28T01:05:52.048Z,9.20
2022-11-28T01:08:19.598Z,9.02
2022-11-28T01:10:47.217Z,10.25
2022-11-28T01:13:14.786Z,9.73
2022-11-28T01:15:42.898Z,9.05
2022-11-28T01:18:10.523Z,8.77
2022-11-28T01:20:38.162Z,9.07
2022-11-28T01:23:05.801Z,9.68
2022-11-28T01:25:33.571Z,9.50
2022-11-28T01:28:01.194Z,9.95
2022-11-28T01:30:29.208Z,9.88
2022-11-28T01:32:56.734Z,9.90
2022-11-28T01:35:24.357Z,9.07
2022-11-28T01:37:51.902Z,9.60
2022-11-28T01:40:19.562Z,9.43
2022-11-28T01:42:47.142Z,9.43
2022-11-28T01:45:25.514Z,9.57
2022-11-28T01:47:54.652Z,9.43
2022-11-28T01:50:23.157Z,8.98
2022-11-28T01:52:53.384Z,8.98
2022-11-28T01:55:23.390Z,9.02
2022-11-28T01:57:51.701Z,9.48
2022-11-28T02:00:20.731Z,9.90
2022-11-28T02:02:49.851Z,8.90
2022-11-28T02:05:18.729Z,9.43
2022-11-28T02:07:46.908Z,9.43
2022-11-28T02:10:18.382Z,9.52
2022-11-28T02:12:51.743Z,9.40
2022-11-28T02:15:24.701Z,9.80
2022-11-28T02:18:11.286Z,9.02
2022-11-28T02:20:42.684Z,9.00
2022-11-28T02:23:23.782Z,9.43
2022-11-28T02:26:11.650Z,9.50
2022-11-28T02:28:51.067Z,9.80
2022-11-28T02:31:38.194Z,9.95
2022-11-28T02:34:10.744Z,9.43
2022-11-28T02:36:44.609Z,9.07
2022-11-28T02:39:25.639Z,10.40
2022-11-28T02:42:00.414Z,10.60
2022-11-28T02:44:34.638Z,9.55
2022-11-28T02:47:14.532Z,10.80
2022-11-28T02:49:47.862Z,9.93
2022-11-28T02:52:28.643Z,10.20
2022-11-28T02:54:56.427Z,10.70
2022-11-28T02:57:23.998Z,10.82
2022-11-28T02:59:51.916Z,11.45
2022-11-28T03:02:25.437Z,10.85
2022-11-28T03:05:08.074Z,11.18
2022-11-28T03:07:54.388Z,11.32
2022-11-28T03:10:44.508Z,11.05
2022-11-28T03:13:30.801Z,10.90
2022-11-28T03:16:01.673Z,11.00
2022-11-28T03:18:40.821Z,11.23
2022-11-28T03:21:24.652Z,10.80
2022-11-28T03:24:00.496Z,10.77
2022-11-28T03:26:51.334Z,11.60
2022-11-28T03:29:24.285Z,10.68
2022-11-28T03:31:51.943Z,10.32
2022-11-28T03:34:21.378Z,11.52
2022-11-28T03:36:52.645Z,11.65
2022-11-28T03:39:22.467Z,12.48
2022-11-28T03:41:55.757Z,12.02
2022-11-28T03:44:52.562Z,11.50
2022-11-28T03:47:20.605Z,11.15
2022-11-28T03:49:55.785Z,11.43
2022-11-28T03:52:29.731Z,11.35
2022-11-28T03:54:59.315Z,12.10
2022-11-28T03:57:34.867Z,12.10
2022-11-28T04:00:07.472Z,12.80
2022-11-28T04:02:58.272Z,12.18
2022-11-28T04:05:33.443Z,11.25
2022-11-28T04:08:22.549Z,11.20
2022-11-28T04:10:57.035Z,11.88
2022-11-28T04:13:26.735Z,11.85
2022-11-28T04:16:00.145Z,12.00
2022-11-28T04:18:30.430Z,12.30
2022-11-28T04:20:58.929Z,11.48
2022-11-28T04:23:27.495Z,11.93
2022-11-28T04:25:58.275Z,11.88
2022-11-28T04:28:27.974Z,12.05
2022-11-28T04:30:57.176Z,11.52
2022-11-28T04:33:26.100Z,11.48
2022-11-28T04:35:54.641Z,11.73
2022-11-28T04:38:24.097Z,11.38
2022-11-28T04:40:57.508Z,11.23
2022-11-28T04:43:28.586Z,11.82
2022-11-28T04:46:01.827Z,11.75
2022-11-28T04:48:34.114Z,11.60
2022-11-28T04:51:04.826Z,10.95
2022-11-28T04:53:35.121Z,10.55
2022-11-28T04:56:06.673Z,10.63
2022-11-28T04:58:39.982Z,10.77
2022-11-28T05:01:10.392Z,10.93
2022-11-28T05:03:42.535Z,11.23
2022-11-28T05:06:10.503Z,10.35
2022-11-28T05:08:38.074Z,10.50
2022-11-28T05:11:05.682Z,10.02
2022-11-28T05:13:33.196Z,11.73
2022-11-28T05:16:01.516Z,11.52
2022-11-28T05:18:29.186Z,11.23
2022-11-28T05:20:58.818Z,11.68
2022-11-28T05:23:26.402Z,12.23
2022-11-28T05:25:53.941Z,12.73
2022-11-28T05:28:21.493Z,12.63
2022-11-28T05:30:57.490Z,11.23
2022-11-28T05:33:25.031Z,12.65
2022-11-28T05:35:52.899Z,12.82
2022-11-28T05:38:20.478Z,12.80
2022-11-28T05:40:48.051Z,11.75
2022-11-28T05:43:15.688Z,11.93
2022-11-28T05:45:43.976Z,12.50
2022-11-28T05:48:11.762Z,12.30
2022-11-28T05:50:40.240Z,12.27
2022-11-28T05:53:07.873Z,12.05
2022-11-28T05:55:35.678Z,12.93
2022-11-28T05:58:03.212Z,12.52
2022-11-28T06:00:30.988Z,12.70
2022-11-28T06:03:01.470Z,12.65
2022-11-28T06:05:42.110Z,13.10
2022-11-28T06:08:12.228Z,13.90
2022-11-28T06:10:39.902Z,12.27
2022-11-28T06:13:07.462Z,12.18
2022-11-28T06:15:37.821Z,11.55
2022-11-28T06:18:06.312Z,12.23
2022-11-28T06:20:35.726Z,12.23
2022-11-28T06:23:03.274Z,12.63
2022-11-28T06:25:30.796Z,12.70
2022-11-28T06:27:58.409Z,11.48
2022-11-28T06:30:26.058Z,12.43
2022-11-28T06:32:54.617Z,12.40
2022-11-28T06:35:22.227Z,11.40
2022-11-28T06:37:49.794Z,11.40
2022-11-28T06:40:18.435Z,11.75
2022-11-28T06:42:48.676Z,11.88
2022-11-28T06:45:16.255Z,11.88
2022-11-28T06:47:43.809Z,10.95
2022-11-28T06:50:11.439Z,10.98
2022-11-28T06:52:39.069Z,10.13
2022-11-28T06:55:06.706Z,11.45
2022-11-28T06:57:35.579Z,10.80
2022-11-28T07:00:03.486Z,11.38
2022-11-28T07:02:31.178Z,10.20
2022-11-28T07:04:58.817Z,10.55
2022-11-28T07:07:26.478Z,10.30
2022-11-28T07:09:54.076Z,10.30
2022-11-28T07:12:21.935Z,10.15
2022-11-28T07:14:49.502Z,10.55
2022-11-28T07:17:17.166Z,10.35
2022-11-28T07:19:48.155Z,10.73
2022-11-28T07:22:18.124Z,10.65
2022-11-28T07:24:46.222Z,10.75
2022-11-28T07:27:14.961Z,9.95
2022-11-28T07:29:42.850Z,10.70
2022-11-28T07:32:10.989Z,9.80
2022-11-28T07:34:38.572Z,10.60
2022-11-28T07:37:06.424Z,10.48
2022-11-28T07:39:34.324Z,10.65
2022-11-28T07:42:01.956Z,9.80
2022-11-28T07:44:29.549Z,10.63
2022-11-28T07:46:57.455Z,10.38
2022-11-28T07:49:25.029Z,10.60
2022-11-28T07:51:52.667Z,10.48
2022-11-28T07:54:20.211Z,10.63
2022-11-28T07:59:35.427Z,10.63
2022-11-28T08:02:03.701Z,11.05
2022-11-28T08:04:31.407Z,9.98
2022-11-28T08:06:59.187Z,9.63
2022-11-28T08:09:26.756Z,10.60
2022-11-28T08:11:54.306Z,9.35
2022-11-28T08:14:22.333Z,10.57
2022-11-28T08:16:50.188Z,10.00
2022-11-28T08:19:23.019Z,10.10
2022-11-28T08:21:52.488Z,10.18
2022-11-28T08:24:20.130Z,10.57
2022-11-28T08:26:47.692Z,10.73
2022-11-28T08:29:43.680Z,10.32
2022-11-28T08:32:11.921Z,10.55
2022-11-28T08:34:39.562Z,10.65
2022-11-28T08:37:07.146Z,10.30
2022-11-28T08:39:34.702Z,10.07
2022-11-28T08:42:02.267Z,9.93
2022-11-28T08:44:30.616Z,9.50
2022-11-28T08:46:58.473Z,9.35
2022-11-28T08:49:26.063Z,9.40
2022-11-28T08:51:53.633Z,9.55
2022-11-28T08:54:21.288Z,8.90
2022-11-28T08:56:48.985Z,9.50
2022-11-28T08:59:16.585Z,9.35
2022-11-28T09:01:44.413Z,9.80
2022-11-28T09:04:12.164Z,10.07
2022-11-28T09:06:40.226Z,9.43
2022-11-28T09:09:09.042Z,9.20
2022-11-28T09:11:36.617Z,9.45
2022-11-28T09:14:04.217Z,9.32
2022-11-28T09:16:31.820Z,9.93
2022-11-28T09:18:59.480Z,9.75
2022-11-28T09:21:27.423Z,9.82
2022-11-28T09:23:56.070Z,9.40
2022-11-28T09:26:25.159Z,9.30
2022-11-28T09:28:53.318Z,8.60
2022-11-28T09:31:21.044Z,9.23
2022-11-28T09:33:49.472Z,9.07
2022-11-28T09:36:18.745Z,9.35
2022-11-28T09:38:46.892Z,8.38
2022-11-28T09:41:30.176Z,8.65
2022-11-28T09:44:21.182Z,8.88
2022-11-28T09:46:50.539Z,9.13
2022-11-28T09:49:39.700Z,8.50
2022-11-28T09:52:29.436Z,8.85
2022-11-28T09:55:01.345Z,9.02
2022-11-28T09:59:56.403Z,9.02
2022-11-28T10:02:44.209Z,10.07
2022-11-28T10:05:18.724Z,8.82
2022-11-28T10:07:55.514Z,9.90
2022-11-28T10:10:23.109Z,9.38
2022-11-28T10:12:58.929Z,9.73
2022-11-28T10:15:41.926Z,9.68
2022-11-28T10:18:12.212Z,9.63
2022-11-28T10:20:44.409Z,10.48
2022-11-28T10:23:14.776Z,10.13
2022-11-28T10:25:45.248Z,9.90
2022-11-28T10:28:24.355Z,9.15
2022-11-28T10:30:55.634Z,10.25
2022-11-28T10:33:29.392Z,10.10
2022-11-28T10:36:01.984Z,9.35
2022-11-28T10:38:31.051Z,8.57
2022-11-28T10:41:05.623Z,8.25
2022-11-28T10:43:37.796Z,7.22
2022-11-28T10:46:11.736Z,7.50
2022-11-28T10:48:40.610Z,7.70
2022-11-28T10:51:08.961Z,7.30
2022-11-28T10:53:55.365Z,7.78
2022-11-28T10:56:36.780Z,7.13
2022-11-28T10:59:14.944Z,7.63
2022-11-28T11:01:46.012Z,6.75
2022-11-28T11:04:22.697Z,7.95
2022-11-28T11:07:16.165Z,7.28
2022-11-28T11:09:46.068Z,7.72
2022-11-28T11:12:18.507Z,7.50
2022-11-28T11:14:46.642Z,7.47
2022-11-28T11:17:34.213Z,8.18
2022-11-28T11:20:19.645Z,7.70
2022-11-28T11:22:57.807Z,7.25
2022-11-28T11:25:26.589Z,6.65
2022-11-28T11:28:00.891Z,6.75
2022-11-28T11:30:32.939Z,7.88
2022-11-28T11:33:02.285Z,7.28
2022-11-28T11:35:44.289Z,6.85
2022-11-28T11:38:26.214Z,7.00
2022-11-28T11:40:54.954Z,7.18
2022-11-28T11:43:33.315Z,6.57
2022-11-28T11:46:11.077Z,6.70
2022-11-28T11:48:42.928Z,7.22
2022-11-28T11:51:29.108Z,6.25
2022-11-28T11:54:06.069Z,6.15
2022-11-28T11:56:37.415Z,6.40
2022-11-28T11:59:10.983Z,6.47
2022-11-28T12:01:39.298Z,6.70
2022-11-28T12:04:37.156Z,6.75
2022-11-28T12:07:01.025Z,6.38
2022-11-28T12:09:40.892Z,7.05
2022-11-28T12:12:13.203Z,6.65
2022-11-28T12:14:41.084Z,7.07
2022-11-28T12:17:32.731Z,6.60
2022-11-28T12:20:00.002Z,6.63
2022-11-28T12:22:28.958Z,7.47
2022-11-28T12:25:02.803Z,8.07
2022-11-28T12:27:53.300Z,6.93
2022-11-28T12:30:26.115Z,6.75
2022-11-28T12:32:59.944Z,7.65
2022-11-28T12:35:47.451Z,6.93
2022-11-28T12:38:24.237Z,6.53
2022-11-28T12:40:51.878Z,6.88
2022-11-28T12:43:38.098Z,6.63
2022-11-28T12:46:10.318Z,6.60
2022-11-28T12:48:41.108Z,6.93
2022-11-28T12:51:14.603Z,6.25
2022-11-28T12:53:47.603Z,6.38
2022-11-28T12:56:28.422Z,5.65
2022-11-28T12:59:03.796Z,6.00
2022-11-28T13:01:47.445Z,6.13
2022-11-28T13:04:38.478Z,6.03
2022-11-28T13:07:18.333Z,5.82
2022-11-28T13:09:58.327Z,6.57
2022-11-28T13:12:41.023Z,7.20
2022-11-28T13:15:17.035Z,7.70
2022-11-28T13:17:44.593Z,7.20
2022-11-28T13:20:34.759Z,7.43
2022-11-28T13:23:14.211Z,6.70
2022-11-28T13:25:48.516Z,6.55
2022-11-28T13:28:39.530Z,7.45
2022-11-28T13:31:13.924Z,7.07
2022-11-28T13:33:52.131Z,7.75
2022-11-28T13:39:18.406Z,8.13
2022-11-28T13:44:51.488Z,8.48
2022-11-28T13:47:22.244Z,8.55
2022-11-28T13:49:50.219Z,9.80
2022-11-28T13:52:21.646Z,10.38
2022-11-28T13:54:55.490Z,10.07
2022-11-28T13:57:28.517Z,10.88
2022-11-28T13:59:59.197Z,10.30
2022-11-28T14:02:36.129Z,10.52
2022-11-28T14:05:05.084Z,10.10
2022-11-28T14:07:34.524Z,10.13
2022-11-28T14:10:24.288Z,10.70
2022-11-28T14:13:12.263Z,9.93
2022-11-28T14:15:55.791Z,9.30
2022-11-28T14:18:56.626Z,9.45
2022-11-28T14:21:28.299Z,9.18
2022-11-28T14:23:59.750Z,9.15
2022-11-28T14:26:34.994Z,9.27
2022-11-28T14:29:06.008Z,8.43
2022-11-28T14:31:33.650Z,8.52
2022-11-28T14:34:04.658Z,8.82
2022-11-28T14:36:37.447Z,8.38
2022-11-28T14:39:20.140Z,8.55
2022-11-28T14:42:03.120Z,9.23
2022-11-28T14:44:52.918Z,8.18
2022-11-28T14:47:26.691Z,8.20
2022-11-28T14:50:06.929Z,7.70
2022-11-28T14:52:39.620Z,8.05
2022-11-28T14:55:16.828Z,8.57
2022-11-28T14:57:56.812Z,8.30
2022-11-28T15:00:29.522Z,7.82
2022-11-28T15:03:03.393Z,7.88
2022-11-28T15:05:39.697Z,7.47
2022-11-28T15:08:23.072Z,7.95
2022-11-28T15:11:09.521Z,8.75
2022-11-28T15:13:59.269Z,7.80
2022-11-28T15:16:29.377Z,8.15
2022-11-28T15:19:07.646Z,9.23
2022-11-28T15:21:43.751Z,8.25
2022-11-28T15:24:24.984Z,8.57
2022-11-28T15:26:57.426Z,8.57
2022-11-28T15:29:28.028Z,8.40
2022-11-28T15:31:57.197Z,8.07
2022-11-28T15:34:25.925Z,7.82
2022-11-28T15:36:54.938Z,8.32
2022-11-28T15:39:39.343Z,8.57
2022-11-28T15:42:09.874Z,8.07
2022-11-28T15:44:38.272Z,7.20
2022-11-28T15:47:06.204Z,8.02
2022-11-28T15:49:35.240Z,7.68
2022-11-28T15:52:04.181Z,8.60
2022-11-28T15:54:41.215Z,8.15
2022-11-28T15:57:20.859Z,8.32
2022-11-28T15:59:48.546Z,7.60
2022-11-28T16:02:23.637Z,8.02
2022-11-28T16:04:56.648Z,7.43
2022-11-28T16:07:24.502Z,7.68
2022-11-28T16:10:03.819Z,7.88
2022-11-28T16:12:31.588Z,7.78
2022-11-28T16:15:01.864Z,7.93
2022-11-28T16:17:32.214Z,8.15
2022-11-28T16:20:00.430Z,8.10
2022-11-28T16:22:31.351Z,8.63
2022-11-28T16:25:11.777Z,8.38
2022-11-28T16:27:41.609Z,7.75
2022-11-28T16:30:25.941Z,7.50
2022-11-28T16:32:55.401Z,7.32
2022-11-28T16:35:28.378Z,8.30
2022-11-28T16:38:16.089Z,7.32
2022-11-28T16:40:44.019Z,8.00
2022-11-28T16:43:23.187Z,7.80
2022-11-28T16:46:00.977Z,8.75
2022-11-28T16:48:33.170Z,8.57
2022-11-28T16:51:20.656Z,8.48
2022-11-28T16:53:49.422Z,8.73
2022-11-28T16:56:26.179Z,8.70
2022-11-28T16:59:02.691Z,8.18
2022-11-28T17:01:31.412Z,8.13
2022-11-28T17:03:59.066Z,8.77
2022-11-28T17:06:34.217Z,8.68
2022-11-28T17:09:02.366Z,8.35
2022-11-28T17:11:32.675Z,7.78
2022-11-28T17:14:02.559Z,9.77
2022-11-28T17:16:33.356Z,8.80
2022-11-28T17:19:01.146Z,7.20
2022-11-28T17:21:28.755Z,6.78
2022-11-28T17:23:56.356Z,7.47
2022-11-28T17:26:23.939Z,7.25
2022-11-28T17:28:51.639Z,7.60
2022-11-28T17:31:19.307Z,7.40
2022-11-28T17:33:46.989Z,7.15
2022-11-28T17:36:14.562Z,7.57
2022-11-28T17:38:42.324Z,7.95
2022-11-28T17:41:13.120Z,7.43
2022-11-28T17:43:41.117Z,7.28
2022-11-28T17:46:09.856Z,18.13
2022-11-28T17:48:37.833Z,19.85
2022-11-28T17:51:06.210Z,16.90
2022-11-28T17:53:34.094Z,7.30
2022-11-28T17:56:01.685Z,7.85
2022-11-28T17:58:29.814Z,8.27
2022-11-28T18:01:00.691Z,8.18
2022-11-28T18:03:29.559Z,9.02
2022-11-28T18:05:57.178Z,7.70
2022-11-28T18:08:24.730Z,8.05
2022-11-28T18:11:02.320Z,7.93
2022-11-28T18:13:30.013Z,7.57
2022-11-28T18:15:58.007Z,8.00
2022-11-28T18:18:25.654Z,8.10
2022-11-28T18:20:53.564Z,7.88
2022-11-28T18:23:21.952Z,7.18
2022-11-28T18:25:49.628Z,7.80
2022-11-28T18:28:19.015Z,7.55
2022-11-28T18:30:48.745Z,7.45
2022-11-28T18:33:16.747Z,8.40
2022-11-28T18:35:44.433Z,6.65
2022-11-28T18:38:12.176Z,7.60
2022-11-28T18:40:40.182Z,7.93
2022-11-28T18:43:07.934Z,7.85
2022-11-28T18:45:36.546Z,8.00
2022-11-28T18:48:04.166Z,7.75
2022-11-28T18:50:35.495Z,7.95
2022-11-28T18:53:03.193Z,8.35
2022-11-28T18:55:30.743Z,8.25
2022-11-28T18:57:58.344Z,8.75
2022-11-28T19:00:26.008Z,8.73
2022-11-28T19:02:54.884Z,7.93
2022-11-28T19:05:22.760Z,8.25
2022-11-28T19:07:50.399Z,8.70
2022-11-28T19:10:18.135Z,8.60
2022-11-28T19:12:45.722Z,8.55
2022-11-28T19:15:13.401Z,9.05
2022-11-28T19:17:41.020Z,8.52
2022-11-28T19:20:09.832Z,8.40
2022-11-28T19:22:37.425Z,8.57
2022-11-28T19:25:05.147Z,8.85
2022-11-28T19:27:32.738Z,7.63
2022-11-28T19:30:00.326Z,8.55
2022-11-28T19:32:27.901Z,8.20
2022-11-28T19:34:55.610Z,9.02
2022-11-28T19:37:23.362Z,8.88
2022-11-28T19:39:52.736Z,8.60
2022-11-28T19:42:20.362Z,9.20
2022-11-28T19:44:48.452Z,9.48
2022-11-28T19:47:16.308Z,8.93
2022-11-28T19:49:44.263Z,8.90
2022-11-28T19:52:12.203Z,8.50
2022-11-28T19:54:39.838Z,8.88
2022-11-28T19:57:11.146Z,9.20
2022-11-28T19:59:38.747Z,8.88
2022-11-28T20:02:07.549Z,9.82
2022-11-28T20:04:35.442Z,9.73
2022-11-28T20:07:03.298Z,9.40
2022-11-28T20:09:31.108Z,10.05
2022-11-28T20:11:58.908Z,10.35
2022-11-28T20:14:31.183Z,9.55
2022-11-28T20:17:00.950Z,9.82
2022-11-28T20:19:28.666Z,10.07
2022-11-28T20:21:57.989Z,10.35
2022-11-28T20:24:25.790Z,10.73
2022-11-28T20:26:53.929Z,10.38
2022-11-28T20:29:26.536Z,10.75
2022-11-28T20:31:54.793Z,12.00
2022-11-28T20:34:22.417Z,10.45
2022-11-28T20:36:54.308Z,10.27
2022-11-28T20:39:21.931Z,10.02
2022-11-28T20:41:49.569Z,9.68
2022-11-28T20:44:18.169Z,9.50
2022-11-28T20:46:46.341Z,9.70
2022-11-28T20:49:17.544Z,9.70
2022-11-28T20:51:45.488Z,10.15
2022-11-28T20:54:13.597Z,10.13
2022-11-28T20:57:12.797Z,9.32
2022-11-28T20:59:30.468Z,10.18
2022-11-28T21:01:58.079Z,9.65
2022-11-28T21:04:25.720Z,9.48
2022-11-28T21:06:53.339Z,10.27
2022-11-28T21:09:20.957Z,9.50
2022-11-28T21:11:58.466Z,9.52
2022-11-28T21:14:27.469Z,10.25
2022-11-28T21:16:55.358Z,9.75
2022-11-28T21:19:23.986Z,9.95
2022-11-28T21:21:51.763Z,10.43
2022-11-28T21:24:19.576Z,10.50
2022-11-28T21:26:53.099Z,10.88
2022-11-28T21:29:22.216Z,11.02
2022-11-28T21:31:49.905Z,10.10
2022-11-28T21:34:19.086Z,10.57
2022-11-28T21:36:46.969Z,10.35
2022-11-28T21:39:15.659Z,10.95
2022-11-28T21:41:43.353Z,10.98
2022-11-28T21:44:11.162Z,11.30
2022-11-28T21:46:38.841Z,10.00
2022-11-28T21:49:06.615Z,10.68
2022-11-28T21:51:38.602Z,10.30
2022-11-28T21:54:06.746Z,11.13
2022-11-28T21:56:34.698Z,11.73
2022-11-28T21:59:02.279Z,10.07
2022-11-28T22:01:30.001Z,11.38
2022-11-28T22:04:02.346Z,11.32
2022-11-28T22:06:31.763Z,11.23
2022-11-28T22:09:04.410Z,11.32
2022-11-28T22:11:36.361Z,11.98
2022-11-28T22:14:04.583Z,12.10
2022-11-28T22:16:32.444Z,11.57
2022-11-28T22:19:00.976Z,11.20
2022-11-28T22:24:17.504Z,11.68
2022-11-28T22:26:45.215Z,10.77
2022-11-28T22:29:13.791Z,11.43
2022-11-28T22:31:41.881Z,11.77
2022-11-28T22:34:10.279Z,11.65
2022-11-28T22:36:38.770Z,11.20
2022-11-28T22:39:06.397Z,11.52
2022-11-28T22:41:34.443Z,10.88
2022-11-28T22:44:03.783Z,10.95
2022-11-28T22:46:32.549Z,12.23
2022-11-28T22:49:01.223Z,10.75
2022-11-28T22:51:29.563Z,10.35
2022-11-28T22:53:58.677Z,11.07
2022-11-28T22:56:28.505Z,10.98
2022-11-28T22:58:56.353Z,10.45
2022-11-28T23:01:25.726Z,11.10
2022-11-28T23:03:54.151Z,10.95
2022-11-28T23:06:24.247Z,10.23
2022-11-28T23:08:55.711Z,10.90
2022-11-28T23:11:25.938Z,10.52
2022-11-28T23:13:53.810Z,11.32
2022-11-28T23:16:47.783Z,10.32
2022-11-28T23:19:17.181Z,10.80
2022-11-28T23:21:46.155Z,11.00
2022-11-28T23:24:18.547Z,10.00
2022-11-28T23:26:47.187Z,11.40
2022-11-28T23:29:15.142Z,11.02
2022-11-28T23:31:43.382Z,11.32
2022-11-28T23:34:12.146Z,10.73
2022-11-28T23:36:42.838Z,11.10
2022-11-28T23:39:18.874Z,11.90
2022-11-28T23:41:46.760Z,10.88
2022-11-28T23:44:15.716Z,10.57
2022-11-28T23:46:43.606Z,11.52
2022-11-28T23:49:11.583Z,11.23
2022-11-28T23:51:40.397Z,10.70
2022-11-28T23:54:08.739Z,10.50
2022-11-28T23:56:37.442Z,11.40
2022-11-28T23:59:06.045Z,10.20
